sensor_id;sensor_type;location;lat;lon;timestamp;temperature;humidity
23669;DHT22;12011;47.422;15.018;2022-11-13T00:02:32;2.10;99.90
23669;DHT22;12011;47.422;15.018;2022-11-13T00:05:40;2.10;99.90
23669;DHT22;12011;47.422;15.018;2022-11-13T00:08:52;2.00;99.90
23669;DHT22;12011;47.422;15.018;2022-11-13T00:12:05;2.00;99.90
23669;DHT22;12011;47.422;15.018;2022-11-13T00:15:13;2.00;99.90
23669;DHT22;12011;47.422;15.018;2022-11-13T00:18:22;2.00;99.90
23669;DHT22;12011;47.422;15.018;2022-11-13T00:21:31;2.00;99.90
23669;DHT22;12011;47.422;15.018;2022-11-13T00:24:39;2.10;99.90
23669;DHT22;12011;47.422;15.018;2022-11-13T00:27:52;2.10;99.90
23669;DHT22;12011;47.422;15.018;2022-11-13T00:31:02;2.10;99.90
23669;DHT22;12011;47.422;15.018;2022-11-13T00:34:12;2.20;99.90
23669;DHT22;12011;47.422;15.018;2022-11-13T00:37:21;2.30;99.90
23669;DHT22;12011;47.422;15.018;2022-11-13T00:40:30;2.30;99.90
23669;DHT22;12011;47.422;15.018;2022-11-13T00:43:41;2.30;99.90
23669;DHT22;12011;47.422;15.018;2022-11-13T00:46:50;2.30;99.90
23669;DHT22;12011;47.422;15.018;2022-11-13T00:49:59;2.40;99.90
23669;DHT22;12011;47.422;15.018;2022-11-13T00:53:10;2.40;99.90
23669;DHT22;12011;47.422;15.018;2022-11-13T00:56:19;2.40;99.90
23669;DHT22;12011;47.422;15.018;2022-11-13T00:59:30;2.40;99.90
23669;DHT22;12011;47.422;15.018;2022-11-13T01:02:38;2.50;99.90
23669;DHT22;12011;47.422;15.018;2022-11-13T01:05:47;2.50;99.90
23669;DHT22;12011;47.422;15.018;2022-11-13T01:08:57;2.50;99.90
23669;DHT22;12011;47.422;15.018;2022-11-13T01:12:08;2.50;99.90
23669;DHT22;12011;47.422;15.018;2022-11-13T01:15:19;2.50;99.90
23669;DHT22;12011;47.422;15.018;2022-11-13T01:18:27;2.50;99.90
23669;DHT22;12011;47.422;15.018;2022-11-13T01:21:37;2.60;99.90
23669;DHT22;12011;47.422;15.018;2022-11-13T01:24:46;2.60;99.90
23669;DHT22;12011;47.422;15.018;2022-11-13T01:27:56;2.60;99.90
23669;DHT22;12011;47.422;15.018;2022-11-13T01:31:11;2.60;99.90
23669;DHT22;12011;47.422;15.018;2022-11-13T01:34:22;2.60;99.90
23669;DHT22;12011;47.422;15.018;2022-11-13T01:37:33;2.60;99.90
23669;DHT22;12011;47.422;15.018;2022-11-13T01:40:44;2.60;99.90
23669;DHT22;12011;47.422;15.018;2022-11-13T01:43:54;2.60;99.90
23669;DHT22;12011;47.422;15.018;2022-11-13T01:47:08;2.60;99.90
23669;DHT22;12011;47.422;15.018;2022-11-13T01:50:17;2.60;99.90
23669;DHT22;12011;47.422;15.018;2022-11-13T01:53:27;2.70;99.90
23669;DHT22;12011;47.422;15.018;2022-11-13T01:56:37;2.70;99.90
23669;DHT22;12011;47.422;15.018;2022-11-13T01:59:50;2.70;99.90
23669;DHT22;12011;47.422;15.018;2022-11-13T02:03:02;2.70;99.90
23669;DHT22;12011;47.422;15.018;2022-11-13T02:06:11;2.70;99.90
23669;DHT22;12011;47.422;15.018;2022-11-13T02:09:23;2.70;99.90
23669;DHT22;12011;47.422;15.018;2022-11-13T02:12:41;2.80;99.90
23669;DHT22;12011;47.422;15.018;2022-11-13T02:15:52;2.80;99.90
23669;DHT22;12011;47.422;15.018;2022-11-13T02:19:12;2.90;99.90
23669;DHT22;12011;47.422;15.018;2022-11-13T02:22:30;2.90;99.90
23669;DHT22;12011;47.422;15.018;2022-11-13T02:25:48;2.90;99.90
23669;DHT22;12011;47.422;15.018;2022-11-13T02:28:58;2.90;99.90
23669;DHT22;12011;47.422;15.018;2022-11-13T02:32:06;2.90;99.90
23669;DHT22;12011;47.422;15.018;2022-11-13T02:35:19;2.90;99.90
23669;DHT22;12011;47.422;15.018;2022-11-13T02:38:30;2.90;99.90
23669;DHT22;12011;47.422;15.018;2022-11-13T02:41:42;2.90;99.90
23669;DHT22;12011;47.422;15.018;2022-11-13T02:44:50;2.90;99.90
23669;DHT22;12011;47.422;15.018;2022-11-13T02:47:59;2.90;99.90
23669;DHT22;12011;47.422;15.018;2022-11-13T02:51:07;2.90;99.90
23669;DHT22;12011;47.422;15.018;2022-11-13T02:54:18;2.80;99.90
23669;DHT22;12011;47.422;15.018;2022-11-13T02:57:31;2.80;99.90
23669;DHT22;12011;47.422;15.018;2022-11-13T03:00:39;2.70;99.90
23669;DHT22;12011;47.422;15.018;2022-11-13T03:03:48;2.70;99.90
23669;DHT22;12011;47.422;15.018;2022-11-13T03:06:56;2.60;99.90
23669;DHT22;12011;47.422;15.018;2022-11-13T03:10:06;2.50;99.90
23669;DHT22;12011;47.422;15.018;2022-11-13T03:13:18;2.30;99.90
23669;DHT22;12011;47.422;15.018;2022-11-13T03:16:26;2.30;99.90
23669;DHT22;12011;47.422;15.018;2022-11-13T03:19:34;2.30;99.90
23669;DHT22;12011;47.422;15.018;2022-11-13T03:22:43;2.20;99.90
23669;DHT22;12011;47.422;15.018;2022-11-13T03:25:51;2.10;99.90
23669;DHT22;12011;47.422;15.018;2022-11-13T03:29:04;2.00;99.90
23669;DHT22;12011;47.422;15.018;2022-11-13T03:32:12;2.10;99.90
23669;DHT22;12011;47.422;15.018;2022-11-13T03:35:21;2.10;99.90
23669;DHT22;12011;47.422;15.018;2022-11-13T03:38:32;2.20;99.90
23669;DHT22;12011;47.422;15.018;2022-11-13T03:41:42;2.20;99.90
23669;DHT22;12011;47.422;15.018;2022-11-13T03:44:52;2.20;99.90
23669;DHT22;12011;47.422;15.018;2022-11-13T03:48:01;2.30;99.90
23669;DHT22;12011;47.422;15.018;2022-11-13T03:51:09;2.40;99.90
23669;DHT22;12011;47.422;15.018;2022-11-13T03:54:18;2.40;99.90
23669;DHT22;12011;47.422;15.018;2022-11-13T03:57:26;2.50;99.90
23669;DHT22;12011;47.422;15.018;2022-11-13T04:00:40;2.50;99.90
23669;DHT22;12011;47.422;15.018;2022-11-13T04:03:49;2.60;99.90
23669;DHT22;12011;47.422;15.018;2022-11-13T04:06:57;2.60;99.90
23669;DHT22;12011;47.422;15.018;2022-11-13T04:10:06;2.60;99.90
23669;DHT22;12011;47.422;15.018;2022-11-13T04:13:16;2.70;99.90
23669;DHT22;12011;47.422;15.018;2022-11-13T04:16:27;2.70;99.90
23669;DHT22;12011;47.422;15.018;2022-11-13T04:19:37;2.70;99.90
23669;DHT22;12011;47.422;15.018;2022-11-13T04:22:45;2.70;99.90
23669;DHT22;12011;47.422;15.018;2022-11-13T04:25:54;2.70;99.90
23669;DHT22;12011;47.422;15.018;2022-11-13T04:29:03;2.70;99.90
23669;DHT22;12011;47.422;15.018;2022-11-13T04:32:14;2.60;99.90
23669;DHT22;12011;47.422;15.018;2022-11-13T04:35:22;2.60;99.90
23669;DHT22;12011;47.422;15.018;2022-11-13T04:38:31;2.60;99.90
23669;DHT22;12011;47.422;15.018;2022-11-13T04:41:39;2.60;99.90
23669;DHT22;12011;47.422;15.018;2022-11-13T04:45:00;2.60;99.90
23669;DHT22;12011;47.422;15.018;2022-11-13T04:48:12;2.70;99.90
23669;DHT22;12011;47.422;15.018;2022-11-13T04:51:21;2.60;99.90
23669;DHT22;12011;47.422;15.018;2022-11-13T04:54:29;2.60;99.90
23669;DHT22;12011;47.422;15.018;2022-11-13T04:57:38;2.60;99.90
23669;DHT22;12011;47.422;15.018;2022-11-13T05:00:46;2.70;99.90
23669;DHT22;12011;47.422;15.018;2022-11-13T05:03:57;2.70;99.90
23669;DHT22;12011;47.422;15.018;2022-11-13T05:07:06;2.70;99.90
23669;DHT22;12011;47.422;15.018;2022-11-13T05:10:15;2.60;99.90
23669;DHT22;12011;47.422;15.018;2022-11-13T05:13:24;2.60;99.90
23669;DHT22;12011;47.422;15.018;2022-11-13T05:16:34;2.60;99.90
23669;DHT22;12011;47.422;15.018;2022-11-13T05:19:45;2.60;99.90
23669;DHT22;12011;47.422;15.018;2022-11-13T05:22:55;2.60;99.90
23669;DHT22;12011;47.422;15.018;2022-11-13T05:26:05;2.50;99.90
23669;DHT22;12011;47.422;15.018;2022-11-13T05:29:15;2.50;99.90
23669;DHT22;12011;47.422;15.018;2022-11-13T05:32:24;2.50;99.90
23669;DHT22;12011;47.422;15.018;2022-11-13T05:35:35;2.50;99.90
23669;DHT22;12011;47.422;15.018;2022-11-13T05:38:44;2.40;99.90
23669;DHT22;12011;47.422;15.018;2022-11-13T05:41:53;2.40;99.90
23669;DHT22;12011;47.422;15.018;2022-11-13T05:45:01;2.40;99.90
23669;DHT22;12011;47.422;15.018;2022-11-13T05:48:11;2.40;99.90
23669;DHT22;12011;47.422;15.018;2022-11-13T05:51:24;2.40;99.90
23669;DHT22;12011;47.422;15.018;2022-11-13T05:54:33;2.40;99.90
23669;DHT22;12011;47.422;15.018;2022-11-13T05:57:44;2.40;99.90
23669;DHT22;12011;47.422;15.018;2022-11-13T06:00:53;2.30;99.90
23669;DHT22;12011;47.422;15.018;2022-11-13T06:04:04;2.30;99.90
23669;DHT22;12011;47.422;15.018;2022-11-13T06:07:16;2.30;99.90
23669;DHT22;12011;47.422;15.018;2022-11-13T06:10:24;2.30;99.90
23669;DHT22;12011;47.422;15.018;2022-11-13T06:13:33;2.40;99.90
23669;DHT22;12011;47.422;15.018;2022-11-13T06:16:42;2.40;99.90
23669;DHT22;12011;47.422;15.018;2022-11-13T06:19:50;2.40;99.90
23669;DHT22;12011;47.422;15.018;2022-11-13T06:23:01;2.30;99.90
23669;DHT22;12011;47.422;15.018;2022-11-13T06:26:12;2.40;99.90
23669;DHT22;12011;47.422;15.018;2022-11-13T06:29:22;2.50;99.90
23669;DHT22;12011;47.422;15.018;2022-11-13T06:32:30;2.50;99.90
23669;DHT22;12011;47.422;15.018;2022-11-13T06:35:38;2.50;99.90
23669;DHT22;12011;47.422;15.018;2022-11-13T06:38:49;2.40;99.90
23669;DHT22;12011;47.422;15.018;2022-11-13T06:41:58;2.40;99.90
23669;DHT22;12011;47.422;15.018;2022-11-13T06:45:08;2.40;99.90
23669;DHT22;12011;47.422;15.018;2022-11-13T06:48:17;2.30;99.90
23669;DHT22;12011;47.422;15.018;2022-11-13T06:51:28;2.30;99.90
23669;DHT22;12011;47.422;15.018;2022-11-13T06:54:40;2.30;99.90
23669;DHT22;12011;47.422;15.018;2022-11-13T06:57:48;2.30;99.90
23669;DHT22;12011;47.422;15.018;2022-11-13T07:00:57;2.30;99.90
23669;DHT22;12011;47.422;15.018;2022-11-13T07:04:07;2.40;99.90
23669;DHT22;12011;47.422;15.018;2022-11-13T07:07:18;2.40;99.90
23669;DHT22;12011;47.422;15.018;2022-11-13T07:10:29;2.40;99.90
23669;DHT22;12011;47.422;15.018;2022-11-13T07:13:38;2.40;99.90
23669;DHT22;12011;47.422;15.018;2022-11-13T07:16:47;2.50;99.90
23669;DHT22;12011;47.422;15.018;2022-11-13T07:19:55;2.60;99.90
23669;DHT22;12011;47.422;15.018;2022-11-13T07:23:04;2.60;99.90
23669;DHT22;12011;47.422;15.018;2022-11-13T07:26:15;2.60;99.90
23669;DHT22;12011;47.422;15.018;2022-11-13T07:29:24;2.80;99.90
23669;DHT22;12011;47.422;15.018;2022-11-13T07:32:32;2.80;99.90
23669;DHT22;12011;47.422;15.018;2022-11-13T07:35:41;2.90;99.90
23669;DHT22;12011;47.422;15.018;2022-11-13T07:38:51;2.90;99.90
23669;DHT22;12011;47.422;15.018;2022-11-13T07:42:02;2.90;99.90
23669;DHT22;12011;47.422;15.018;2022-11-13T07:45:11;2.90;99.90
23669;DHT22;12011;47.422;15.018;2022-11-13T07:48:21;3.00;99.90
23669;DHT22;12011;47.422;15.018;2022-11-13T07:51:31;3.00;99.90
23669;DHT22;12011;47.422;15.018;2022-11-13T07:54:40;3.10;99.90
23669;DHT22;12011;47.422;15.018;2022-11-13T07:57:53;3.20;99.90
23669;DHT22;12011;47.422;15.018;2022-11-13T08:01:04;3.20;99.90
23669;DHT22;12011;47.422;15.018;2022-11-13T08:04:13;3.20;99.90
23669;DHT22;12011;47.422;15.018;2022-11-13T08:07:21;3.10;99.90
23669;DHT22;12011;47.422;15.018;2022-11-13T08:10:29;3.00;99.90
23669;DHT22;12011;47.422;15.018;2022-11-13T08:13:40;3.10;99.90
23669;DHT22;12011;47.422;15.018;2022-11-13T08:16:49;3.40;99.90
23669;DHT22;12011;47.422;15.018;2022-11-13T08:19:57;3.40;99.90
23669;DHT22;12011;47.422;15.018;2022-11-13T08:23:06;3.60;99.90
23669;DHT22;12011;47.422;15.018;2022-11-13T08:26:14;3.70;99.90
23669;DHT22;12011;47.422;15.018;2022-11-13T08:29:27;3.80;99.90
23669;DHT22;12011;47.422;15.018;2022-11-13T08:32:36;3.90;99.90
23669;DHT22;12011;47.422;15.018;2022-11-13T08:35:52;3.90;99.90
23669;DHT22;12011;47.422;15.018;2022-11-13T08:39:04;3.90;99.90
23669;DHT22;12011;47.422;15.018;2022-11-13T08:42:13;4.00;99.90
23669;DHT22;12011;47.422;15.018;2022-11-13T08:45:29;4.00;99.90
23669;DHT22;12011;47.422;15.018;2022-11-13T08:48:38;4.00;99.90
23669;DHT22;12011;47.422;15.018;2022-11-13T08:51:46;4.00;99.90
23669;DHT22;12011;47.422;15.018;2022-11-13T08:54:58;4.00;99.90
23669;DHT22;12011;47.422;15.018;2022-11-13T08:58:08;4.30;99.90
23669;DHT22;12011;47.422;15.018;2022-11-13T09:01:19;4.10;99.90
23669;DHT22;12011;47.422;15.018;2022-11-13T09:04:30;4.20;99.90
23669;DHT22;12011;47.422;15.018;2022-11-13T09:07:40;4.30;99.90
23669;DHT22;12011;47.422;15.018;2022-11-13T09:10:49;4.40;99.90
23669;DHT22;12011;47.422;15.018;2022-11-13T09:13:58;4.40;99.90
23669;DHT22;12011;47.422;15.018;2022-11-13T09:17:11;4.40;99.90
23669;DHT22;12011;47.422;15.018;2022-11-13T09:20:20;4.40;99.90
23669;DHT22;12011;47.422;15.018;2022-11-13T09:23:30;4.40;99.90
23669;DHT22;12011;47.422;15.018;2022-11-13T09:26:40;4.40;99.90
23669;DHT22;12011;47.422;15.018;2022-11-13T09:29:49;4.30;99.90
23669;DHT22;12011;47.422;15.018;2022-11-13T09:33:01;4.20;99.90
23669;DHT22;12011;47.422;15.018;2022-11-13T09:36:11;4.20;99.90
23669;DHT22;12011;47.422;15.018;2022-11-13T09:39:22;4.60;99.90
23669;DHT22;12011;47.422;15.018;2022-11-13T09:42:32;4.80;99.90
23669;DHT22;12011;47.422;15.018;2022-11-13T09:45:42;5.00;99.90
23669;DHT22;12011;47.422;15.018;2022-11-13T09:49:00;5.10;99.90
23669;DHT22;12011;47.422;15.018;2022-11-13T09:52:14;5.20;99.90
23669;DHT22;12011;47.422;15.018;2022-11-13T09:55:31;5.30;99.90
23669;DHT22;12011;47.422;15.018;2022-11-13T09:58:47;5.30;99.90
23669;DHT22;12011;47.422;15.018;2022-11-13T10:02:07;5.30;99.90
23669;DHT22;12011;47.422;15.018;2022-11-13T10:05:31;5.30;99.90
23669;DHT22;12011;47.422;15.018;2022-11-13T10:08:52;5.20;99.90
23669;DHT22;12011;47.422;15.018;2022-11-13T10:12:06;5.20;99.90
23669;DHT22;12011;47.422;15.018;2022-11-13T10:15:19;5.20;99.90
23669;DHT22;12011;47.422;15.018;2022-11-13T10:18:34;4.90;99.90
23669;DHT22;12011;47.422;15.018;2022-11-13T10:21:57;5.30;99.90
23669;DHT22;12011;47.422;15.018;2022-11-13T10:25:20;5.70;99.90
23669;DHT22;12011;47.422;15.018;2022-11-13T10:28:30;5.70;99.90
23669;DHT22;12011;47.422;15.018;2022-11-13T10:31:47;5.90;99.90
23669;DHT22;12011;47.422;15.018;2022-11-13T10:35:07;6.20;99.90
23669;DHT22;12011;47.422;15.018;2022-11-13T10:38:37;6.50;99.90
23669;DHT22;12011;47.422;15.018;2022-11-13T10:41:51;6.90;99.90
23669;DHT22;12011;47.422;15.018;2022-11-13T10:45:01;7.00;99.90
23669;DHT22;12011;47.422;15.018;2022-11-13T10:48:19;6.90;99.90
23669;DHT22;12011;47.422;15.018;2022-11-13T10:51:37;6.80;99.90
23669;DHT22;12011;47.422;15.018;2022-11-13T10:54:49;6.60;99.90
23669;DHT22;12011;47.422;15.018;2022-11-13T10:58:00;6.90;99.90
23669;DHT22;12011;47.422;15.018;2022-11-13T11:01:18;7.00;99.90
23669;DHT22;12011;47.422;15.018;2022-11-13T11:04:29;7.20;99.90
23669;DHT22;12011;47.422;15.018;2022-11-13T11:07:39;7.20;99.90
23669;DHT22;12011;47.422;15.018;2022-11-13T11:10:58;7.20;99.90
23669;DHT22;12011;47.422;15.018;2022-11-13T11:14:25;7.50;99.90
23669;DHT22;12011;47.422;15.018;2022-11-13T11:17:41;7.40;99.90
23669;DHT22;12011;47.422;15.018;2022-11-13T11:20:55;7.60;99.90
23669;DHT22;12011;47.422;15.018;2022-11-13T11:24:12;7.80;99.90
23669;DHT22;12011;47.422;15.018;2022-11-13T11:27:28;8.30;99.90
23669;DHT22;12011;47.422;15.018;2022-11-13T11:30:46;9.60;99.90
23669;DHT22;12011;47.422;15.018;2022-11-13T11:34:03;11.10;91.00
23669;DHT22;12011;47.422;15.018;2022-11-13T11:37:26;11.70;77.90
23669;DHT22;12011;47.422;15.018;2022-11-13T11:40:41;12.00;75.40
23669;DHT22;12011;47.422;15.018;2022-11-13T11:44:03;12.70;71.80
23669;DHT22;12011;47.422;15.018;2022-11-13T11:47:21;13.50;69.90
23669;DHT22;12011;47.422;15.018;2022-11-13T11:50:35;13.90;64.50
23669;DHT22;12011;47.422;15.018;2022-11-13T11:53:57;14.20;63.60
23669;DHT22;12011;47.422;15.018;2022-11-13T11:57:23;14.50;61.50
23669;DHT22;12011;47.422;15.018;2022-11-13T12:00:49;12.90;63.10
23669;DHT22;12011;47.422;15.018;2022-11-13T12:04:13;13.30;66.70
23669;DHT22;12011;47.422;15.018;2022-11-13T12:07:35;13.60;63.30
23669;DHT22;12011;47.422;15.018;2022-11-13T12:10:55;14.00;62.20
23669;DHT22;12011;47.422;15.018;2022-11-13T12:14:17;14.10;62.50
23669;DHT22;12011;47.422;15.018;2022-11-13T12:17:51;14.00;61.30
23669;DHT22;12011;47.422;15.018;2022-11-13T12:21:20;14.60;61.70
23669;DHT22;12011;47.422;15.018;2022-11-13T12:24:54;14.30;61.00
23669;DHT22;12011;47.422;15.018;2022-11-13T12:28:16;14.70;60.10
23669;DHT22;12011;47.422;15.018;2022-11-13T12:31:43;14.90;60.70
23669;DHT22;12011;47.422;15.018;2022-11-13T12:35:03;14.90;59.50
23669;DHT22;12011;47.422;15.018;2022-11-13T12:38:29;14.90;60.00
23669;DHT22;12011;47.422;15.018;2022-11-13T12:41:49;15.00;58.90
23669;DHT22;12011;47.422;15.018;2022-11-13T12:45:11;14.30;59.60
23669;DHT22;12011;47.422;15.018;2022-11-13T12:48:32;14.20;61.30
23669;DHT22;12011;47.422;15.018;2022-11-13T12:51:53;13.40;63.80
23669;DHT22;12011;47.422;15.018;2022-11-13T12:55:06;12.80;67.20
23669;DHT22;12011;47.422;15.018;2022-11-13T12:58:19;12.50;69.00
23669;DHT22;12011;47.422;15.018;2022-11-13T13:01:33;12.20;70.50
23669;DHT22;12011;47.422;15.018;2022-11-13T13:05:00;11.40;78.50
23669;DHT22;12011;47.422;15.018;2022-11-13T13:08:38;10.90;86.20
23669;DHT22;12011;47.422;15.018;2022-11-13T13:12:02;10.60;92.40
23669;DHT22;12011;47.422;15.018;2022-11-13T13:15:29;10.40;96.10
23669;DHT22;12011;47.422;15.018;2022-11-13T13:18:40;10.00;95.70
23669;DHT22;12011;47.422;15.018;2022-11-13T13:21:48;9.90;96.00
23669;DHT22;12011;47.422;15.018;2022-11-13T13:25:04;9.70;99.90
23669;DHT22;12011;47.422;15.018;2022-11-13T13:28:19;9.70;99.90
23669;DHT22;12011;47.422;15.018;2022-11-13T13:31:36;9.70;99.90
23669;DHT22;12011;47.422;15.018;2022-11-13T13:34:58;9.60;99.90
23669;DHT22;12011;47.422;15.018;2022-11-13T13:38:17;9.40;99.90
23669;DHT22;12011;47.422;15.018;2022-11-13T13:41:49;9.30;99.90
23669;DHT22;12011;47.422;15.018;2022-11-13T13:45:21;9.30;99.90
23669;DHT22;12011;47.422;15.018;2022-11-13T13:48:37;9.20;99.90
23669;DHT22;12011;47.422;15.018;2022-11-13T13:51:50;9.20;99.90
23669;DHT22;12011;47.422;15.018;2022-11-13T13:55:01;9.30;99.90
23669;DHT22;12011;47.422;15.018;2022-11-13T13:58:18;9.30;99.90
23669;DHT22;12011;47.422;15.018;2022-11-13T14:01:32;9.30;99.90
23669;DHT22;12011;47.422;15.018;2022-11-13T14:04:43;9.50;99.90
23669;DHT22;12011;47.422;15.018;2022-11-13T14:07:53;9.50;99.90
23669;DHT22;12011;47.422;15.018;2022-11-13T14:11:13;9.70;99.90
23669;DHT22;12011;47.422;15.018;2022-11-13T14:14:28;9.60;99.90
23669;DHT22;12011;47.422;15.018;2022-11-13T14:17:37;9.60;99.90
23669;DHT22;12011;47.422;15.018;2022-11-13T14:20:48;9.50;99.90
23669;DHT22;12011;47.422;15.018;2022-11-13T14:24:00;9.50;99.90
23669;DHT22;12011;47.422;15.018;2022-11-13T14:27:16;9.50;93.30
23669;DHT22;12011;47.422;15.018;2022-11-13T14:30:30;9.50;99.90
23669;DHT22;12011;47.422;15.018;2022-11-13T14:33:43;9.50;99.90
23669;DHT22;12011;47.422;15.018;2022-11-13T14:49:26;8.70;99.90
23669;DHT22;12011;47.422;15.018;2022-11-13T14:52:35;8.70;99.90
23669;DHT22;12011;47.422;15.018;2022-11-13T14:55:52;8.50;99.90
23669;DHT22;12011;47.422;15.018;2022-11-13T14:59:11;8.60;98.60
23669;DHT22;12011;47.422;15.018;2022-11-13T15:02:25;8.80;93.30
23669;DHT22;12011;47.422;15.018;2022-11-13T15:05:40;8.60;94.00
23669;DHT22;12011;47.422;15.018;2022-11-13T15:08:53;8.50;94.20
23669;DHT22;12011;47.422;15.018;2022-11-13T15:12:08;8.40;95.60
23669;DHT22;12011;47.422;15.018;2022-11-13T15:15:21;8.10;99.90
23669;DHT22;12011;47.422;15.018;2022-11-13T15:24:12;7.50;99.90
23669;DHT22;12011;47.422;15.018;2022-11-13T15:27:22;7.40;99.90
23669;DHT22;12011;47.422;15.018;2022-11-13T15:30:31;7.30;99.90
23669;DHT22;12011;47.422;15.018;2022-11-13T15:33:42;7.30;99.90
23669;DHT22;12011;47.422;15.018;2022-11-13T15:36:51;6.90;99.90
23669;DHT22;12011;47.422;15.018;2022-11-13T15:40:06;6.90;99.90
23669;DHT22;12011;47.422;15.018;2022-11-13T15:43:18;7.10;99.90
23669;DHT22;12011;47.422;15.018;2022-11-13T15:46:36;7.30;99.90
23669;DHT22;12011;47.422;15.018;2022-11-13T15:49:45;7.30;98.20
23669;DHT22;12011;47.422;15.018;2022-11-13T15:52:53;7.10;99.90
23669;DHT22;12011;47.422;15.018;2022-11-13T15:56:13;6.90;99.90
23669;DHT22;12011;47.422;15.018;2022-11-13T15:59:23;6.60;99.90
23669;DHT22;12011;47.422;15.018;2022-11-13T16:02:36;6.10;99.90
23669;DHT22;12011;47.422;15.018;2022-11-13T16:05:57;5.80;99.90
23669;DHT22;12011;47.422;15.018;2022-11-13T16:09:12;5.90;99.90
23669;DHT22;12011;47.422;15.018;2022-11-13T16:12:25;5.70;99.90
23669;DHT22;12011;47.422;15.018;2022-11-13T16:15:42;5.70;99.90
23669;DHT22;12011;47.422;15.018;2022-11-13T16:18:53;5.80;99.90
23669;DHT22;12011;47.422;15.018;2022-11-13T16:22:17;5.60;99.90
23669;DHT22;12011;47.422;15.018;2022-11-13T16:25:27;5.50;99.90
23669;DHT22;12011;47.422;15.018;2022-11-13T16:28:41;5.20;99.90
23669;DHT22;12011;47.422;15.018;2022-11-13T16:31:51;5.30;99.90
23669;DHT22;12011;47.422;15.018;2022-11-13T16:35:00;5.20;99.90
23669;DHT22;12011;47.422;15.018;2022-11-13T16:38:11;5.20;99.90
23669;DHT22;12011;47.422;15.018;2022-11-13T16:41:19;5.00;99.90
23669;DHT22;12011;47.422;15.018;2022-11-13T16:44:31;4.90;99.90
23669;DHT22;12011;47.422;15.018;2022-11-13T16:47:40;4.90;99.90
23669;DHT22;12011;47.422;15.018;2022-11-13T16:50:51;4.50;99.90
23669;DHT22;12011;47.422;15.018;2022-11-13T16:54:02;4.30;99.90
23669;DHT22;12011;47.422;15.018;2022-11-13T16:57:11;4.20;99.90
23669;DHT22;12011;47.422;15.018;2022-11-13T17:00:24;4.30;99.90
23669;DHT22;12011;47.422;15.018;2022-11-13T17:03:32;4.20;99.90
23669;DHT22;12011;47.422;15.018;2022-11-13T17:06:43;4.10;99.90
23669;DHT22;12011;47.422;15.018;2022-11-13T17:09:51;4.00;99.90
23669;DHT22;12011;47.422;15.018;2022-11-13T17:13:00;4.10;99.90
23669;DHT22;12011;47.422;15.018;2022-11-13T17:16:14;4.20;99.90
23669;DHT22;12011;47.422;15.018;2022-11-13T17:19:23;4.30;99.90
23669;DHT22;12011;47.422;15.018;2022-11-13T17:22:33;4.40;99.90
23669;DHT22;12011;47.422;15.018;2022-11-13T17:25:41;4.40;99.90
23669;DHT22;12011;47.422;15.018;2022-11-13T17:28:52;4.40;99.90
23669;DHT22;12011;47.422;15.018;2022-11-13T17:32:06;4.30;99.90
23669;DHT22;12011;47.422;15.018;2022-11-13T17:35:17;4.40;99.90
23669;DHT22;12011;47.422;15.018;2022-11-13T17:38:26;4.40;99.90
23669;DHT22;12011;47.422;15.018;2022-11-13T17:41:35;4.50;99.90
23669;DHT22;12011;47.422;15.018;2022-11-13T17:44:48;4.70;99.90
23669;DHT22;12011;47.422;15.018;2022-11-13T17:47:59;4.70;99.90
23669;DHT22;12011;47.422;15.018;2022-11-13T17:51:12;4.80;99.90
23669;DHT22;12011;47.422;15.018;2022-11-13T17:54:28;4.90;99.90
23669;DHT22;12011;47.422;15.018;2022-11-13T17:57:39;5.00;99.90
23669;DHT22;12011;47.422;15.018;2022-11-13T18:00:51;5.00;99.90
23669;DHT22;12011;47.422;15.018;2022-11-13T18:04:07;5.10;99.90
23669;DHT22;12011;47.422;15.018;2022-11-13T18:07:18;5.10;99.90
23669;DHT22;12011;47.422;15.018;2022-11-13T18:10:28;5.20;99.90
23669;DHT22;12011;47.422;15.018;2022-11-13T18:13:41;5.50;99.90
23669;DHT22;12011;47.422;15.018;2022-11-13T18:16:50;5.30;99.90
23669;DHT22;12011;47.422;15.018;2022-11-13T18:20:01;5.30;99.90
23669;DHT22;12011;47.422;15.018;2022-11-13T18:23:10;5.30;99.90
23669;DHT22;12011;47.422;15.018;2022-11-13T18:26:21;5.20;99.90
23669;DHT22;12011;47.422;15.018;2022-11-13T18:29:33;5.20;99.90
23669;DHT22;12011;47.422;15.018;2022-11-13T18:32:47;5.30;99.90
23669;DHT22;12011;47.422;15.018;2022-11-13T18:36:02;5.30;99.90
23669;DHT22;12011;47.422;15.018;2022-11-13T18:39:13;5.20;99.90
23669;DHT22;12011;47.422;15.018;2022-11-13T18:42:22;5.20;99.90
23669;DHT22;12011;47.422;15.018;2022-11-13T18:45:31;5.30;99.90
23669;DHT22;12011;47.422;15.018;2022-11-13T18:48:42;5.20;99.90
23669;DHT22;12011;47.422;15.018;2022-11-13T18:51:54;5.20;99.90
23669;DHT22;12011;47.422;15.018;2022-11-13T18:55:06;5.10;99.90
23669;DHT22;12011;47.422;15.018;2022-11-13T18:58:46;5.10;99.90
23669;DHT22;12011;47.422;15.018;2022-11-13T19:01:57;5.10;99.90
23669;DHT22;12011;47.422;15.018;2022-11-13T19:05:16;5.10;99.90
23669;DHT22;12011;47.422;15.018;2022-11-13T19:08:29;5.10;99.90
23669;DHT22;12011;47.422;15.018;2022-11-13T19:11:38;5.10;99.90
23669;DHT22;12011;47.422;15.018;2022-11-13T19:14:49;5.00;99.90
23669;DHT22;12011;47.422;15.018;2022-11-13T19:17:57;4.90;99.90
23669;DHT22;12011;47.422;15.018;2022-11-13T19:21:10;4.70;99.90
23669;DHT22;12011;47.422;15.018;2022-11-13T19:24:23;4.60;99.90
23669;DHT22;12011;47.422;15.018;2022-11-13T19:27:41;4.50;99.90
23669;DHT22;12011;47.422;15.018;2022-11-13T19:30:52;4.30;99.90
23669;DHT22;12011;47.422;15.018;2022-11-13T19:34:09;4.10;99.90
23669;DHT22;12011;47.422;15.018;2022-11-13T19:37:21;3.90;99.90
23669;DHT22;12011;47.422;15.018;2022-11-13T19:40:39;3.70;99.90
23669;DHT22;12011;47.422;15.018;2022-11-13T19:43:53;3.70;99.90
23669;DHT22;12011;47.422;15.018;2022-11-13T19:47:05;3.50;99.90
23669;DHT22;12011;47.422;15.018;2022-11-13T19:50:26;3.50;99.90
23669;DHT22;12011;47.422;15.018;2022-11-13T19:53:40;3.60;99.90
23669;DHT22;12011;47.422;15.018;2022-11-13T19:56:57;3.80;99.90
23669;DHT22;12011;47.422;15.018;2022-11-13T20:00:11;3.80;99.90
23669;DHT22;12011;47.422;15.018;2022-11-13T20:03:24;3.90;99.90
23669;DHT22;12011;47.422;15.018;2022-11-13T20:06:43;4.00;99.90
23669;DHT22;12011;47.422;15.018;2022-11-13T20:09:55;4.00;99.90
23669;DHT22;12011;47.422;15.018;2022-11-13T20:13:15;4.10;99.90
23669;DHT22;12011;47.422;15.018;2022-11-13T20:16:31;4.20;99.90
23669;DHT22;12011;47.422;15.018;2022-11-13T20:19:46;4.30;99.90
23669;DHT22;12011;47.422;15.018;2022-11-13T20:22:55;4.50;99.90
23669;DHT22;12011;47.422;15.018;2022-11-13T20:26:15;4.60;99.90
23669;DHT22;12011;47.422;15.018;2022-11-13T20:29:31;4.70;99.90
23669;DHT22;12011;47.422;15.018;2022-11-13T20:32:45;4.80;99.90
23669;DHT22;12011;47.422;15.018;2022-11-13T20:35:56;4.80;99.90